Time;durP1;ratioP1;P1;durP2;ratioP2;P2;SDS_P1;SDS_P2;PMS_P1;PMS_P2;Temp;Humidity;BMP_temperature;BMP_pressure;BME280_temperature;BME280_humidity;BME280_pressure;Samples;Min_cycle;Max_cycle;Signal;HPM_P1;HPM_P2
2021/06/12 00:00:21;;;;;;;;;0.00;0.00;;;;;23.63;52.81;101589.31;5124327;27;45256;-63
2021/06/12 00:02:47;;;;;;;;;0.00;0.00;;;;;23.62;52.81;101586.81;5124289;27;45668;-63
2021/06/12 00:05:14;;;;;;;;;0.00;0.00;;;;;23.56;52.44;101583.00;5124474;27;45268;-64
2021/06/12 00:07:39;;;;;;;;;0.00;0.00;;;;;23.50;52.02;101576.56;5124840;27;45535;-64
2021/06/12 00:10:09;;;;;;;;;0.00;0.00;;;;;23.47;52.13;101587.63;5124465;27;45305;-64
2021/06/12 00:12:34;;;;;;;;;0.00;0.00;;;;;23.43;52.19;101585.50;5110153;27;45408;-64
2021/06/12 00:15:00;;;;;;;;;0.00;0.00;;;;;23.39;52.21;101586.88;5123861;27;45501;-63
2021/06/12 00:17:25;;;;;;;;;0.00;0.00;;;;;23.36;52.74;101584.56;5110760;27;45290;-63
2021/06/12 00:19:51;;;;;;;;;0.00;0.00;;;;;23.31;52.29;101587.81;5103721;27;45358;-63
2021/06/12 00:22:16;;;;;;;;;0.00;0.00;;;;;23.30;52.59;101592.34;5116953;27;45348;-63
2021/06/12 00:24:41;;;;;;;;;0.00;0.00;;;;;23.27;53.50;101591.88;5123438;27;45348;-63
2021/06/12 00:27:07;;;;;;;;;0.00;0.00;;;;;23.22;53.16;101587.06;5124310;27;45321;-64
2021/06/12 00:29:32;;;;;;;;;0.00;0.00;;;;;23.20;53.31;101593.63;5124207;27;45318;-64
2021/06/12 00:31:58;;;;;;;;;0.00;0.00;;;;;23.12;52.55;101598.00;5123664;27;46465;-63
2021/06/12 00:34:23;;;;;;;;;0.00;0.00;;;;;23.05;53.00;101597.09;5117799;27;45234;-63
2021/06/12 00:36:48;;;;;;;;;0.00;0.00;;;;;22.99;52.84;101594.25;5116613;27;45262;-62
2021/06/12 00:39:13;;;;;;;;;0.00;0.00;;;;;22.98;52.72;101598.78;5123499;27;45307;-63
2021/06/12 00:41:39;;;;;;;;;0.00;0.00;;;;;22.94;52.50;101594.81;5123513;27;45569;-63
2021/06/12 00:44:05;;;;;;;;;0.00;0.00;;;;;22.91;52.93;101593.28;5123682;27;45484;-63
2021/06/12 00:46:31;;;;;;;;;0.00;0.00;;;;;22.90;52.60;101601.53;5123863;27;45186;-64
2021/06/12 00:48:56;;;;;;;;;0.00;0.00;;;;;22.89;52.56;101594.50;5123469;27;45231;-64
2021/06/12 00:51:22;;;;;;;;;0.00;0.00;;;;;22.87;52.90;101608.09;5123117;27;46085;-64
2021/06/12 00:53:47;;;;;;;;;0.00;0.00;;;;;22.83;52.57;101604.09;5116572;27;45237;-64
2021/06/12 00:56:18;;;;;;;;;0.00;0.00;;;;;22.80;52.57;101600.94;5102461;27;45392;-64
2021/06/12 00:58:45;;;;;;;;;0.00;0.00;;;;;22.76;52.57;101603.13;5102690;27;45309;-64
2021/06/12 01:01:13;;;;;;;;;0.00;0.00;;;;;22.73;52.60;101598.97;5116309;27;47106;-63
2021/06/12 01:03:40;;;;;;;;;0.00;0.00;;;;;22.72;52.30;101601.81;5123521;27;45395;-63
2021/06/12 01:06:10;;;;;;;;;0.00;0.00;;;;;22.69;52.34;101599.50;5091474;27;45413;-64
2021/06/12 01:08:37;;;;;;;;;0.00;0.00;;;;;22.67;52.36;101598.84;5123395;27;45418;-64
2021/06/12 01:11:03;;;;;;;;;0.00;0.00;;;;;22.67;51.97;101591.63;5123199;27;45291;-63
2021/06/12 01:13:48;;;;;;;;;0.00;0.00;;;;;22.62;52.14;101586.00;5104926;27;45409;-63
2021/06/12 01:16:43;;;;;;;;;0.00;0.00;;;;;22.60;51.82;101592.53;5123608;27;45441;-63
2021/06/12 01:19:29;;;;;;;;;0.00;0.00;;;;;22.56;52.11;101585.88;5104788;27;45373;-64
2021/06/12 01:22:01;;;;;;;;;0.00;0.00;;;;;22.53;52.20;101579.03;5123187;27;45537;-64
2021/06/12 01:24:43;;;;;;;;;0.00;0.00;;;;;22.51;52.51;101583.75;5122868;27;45270;-64
2021/06/12 01:27:39;;;;;;;;;0.00;0.00;;;;;22.46;52.18;101581.59;5123148;27;45244;-64
2021/06/12 01:30:13;;;;;;;;;0.00;0.00;;;;;22.44;52.42;101588.09;5112563;27;45211;-63
2021/06/12 01:33:01;;;;;;;;;0.00;0.00;;;;;22.40;52.40;101584.97;5102023;27;46353;-63
2021/06/12 01:35:47;;;;;;;;;0.00;0.00;;;;;22.38;52.91;101589.66;5102060;27;45278;-63
2021/06/12 01:38:23;;;;;;;;;0.00;0.00;;;;;22.39;52.51;101587.81;5102181;27;45469;-63
2021/06/12 01:40:50;;;;;;;;;0.00;0.00;;;;;22.41;52.37;101591.16;5102243;27;45263;-64
2021/06/12 01:43:18;;;;;;;;;0.00;0.00;;;;;22.42;52.18;101590.13;5114308;27;46407;-64
2021/06/12 01:45:45;;;;;;;;;0.00;0.00;;;;;22.43;52.01;101595.31;5087187;27;45299;-64
2021/06/12 01:48:12;;;;;;;;;0.00;0.00;;;;;22.39;52.02;101585.97;5123129;27;45259;-64
2021/06/12 01:50:40;;;;;;;;;0.00;0.00;;;;;22.39;51.99;101585.13;5122909;27;45593;-63
2021/06/12 01:53:07;;;;;;;;;0.00;0.00;;;;;22.37;52.11;101589.84;5121576;27;46784;-63
2021/06/12 01:55:35;;;;;;;;;0.00;0.00;;;;;22.37;52.18;101581.81;5090613;27;45278;-64
2021/06/12 01:58:06;;;;;;;;;0.00;0.00;;;;;22.35;52.37;101581.97;5122921;27;45409;-64
2021/06/12 02:00:31;;;;;;;;;0.00;0.00;;;;;22.35;52.21;101581.16;5123098;27;45394;-64
2021/06/12 02:02:58;;;;;;;;;0.00;0.00;;;;;22.32;52.03;101585.84;5121645;27;45633;-62
2021/06/12 02:05:25;;;;;;;;;0.00;0.00;;;;;22.29;52.59;101585.38;5122601;27;45274;-63
2021/06/12 02:07:53;;;;;;;;;0.00;0.00;;;;;22.29;52.53;101588.06;5122496;27;45283;-64
2021/06/12 02:10:31;;;;;;;;;0.00;0.00;;;;;22.28;52.49;101591.72;5122618;27;45396;-64
2021/06/12 02:12:57;;;;;;;;;0.00;0.00;;;;;22.27;52.04;101595.44;5111148;27;45424;-64
2021/06/12 02:15:25;;;;;;;;;0.00;0.00;;;;;22.24;52.42;101591.22;5112597;27;45258;-63
2021/06/12 02:17:58;;;;;;;;;0.00;0.00;;;;;22.28;52.11;101602.44;5083662;27;45234;-64
2021/06/12 02:20:24;;;;;;;;;0.00;0.00;;;;;22.30;52.15;101605.75;5083586;27;45423;-64
2021/06/12 02:22:52;;;;;;;;;0.00;0.00;;;;;22.30;52.12;101608.44;5119159;27;45444;-63
2021/06/12 02:25:18;;;;;;;;;0.00;0.00;;;;;22.26;52.24;101604.44;5122483;27;45229;-63
2021/06/12 02:27:48;;;;;;;;;0.00;0.00;;;;;22.22;52.43;101605.75;5122383;27;45403;-63
2021/06/12 02:30:15;;;;;;;;;0.00;0.00;;;;;22.19;52.23;101616.84;5122052;27;45350;-63
2021/06/12 02:32:44;;;;;;;;;0.00;0.00;;;;;22.19;52.49;101623.00;5103239;27;45379;-63
2021/06/12 02:35:11;;;;;;;;;0.00;0.00;;;;;22.18;52.40;101620.50;5101657;27;45352;-63
2021/06/12 02:37:41;;;;;;;;;0.00;0.00;;;;;22.17;52.31;101625.03;5121020;27;45367;-63
2021/06/12 02:40:09;;;;;;;;;0.00;0.00;;;;;22.09;52.50;101620.56;5122285;27;45491;-63
2021/06/12 02:42:35;;;;;;;;;0.00;0.00;;;;;22.01;52.91;101622.41;5121894;27;46205;-63
2021/06/12 02:45:02;;;;;;;;;0.00;0.00;;;;;21.94;53.14;101611.56;5103696;27;45366;-64
2021/06/12 02:47:30;;;;;;;;;0.00;0.00;;;;;21.95;53.12;101621.28;5122804;27;45339;-63
2021/06/12 02:49:57;;;;;;;;;0.00;0.00;;;;;21.92;53.30;101617.09;5122276;27;45345;-64
2021/06/12 02:52:27;;;;;;;;;0.00;0.00;;;;;21.91;53.31;101619.94;5121212;27;45446;-64
2021/06/12 02:54:57;;;;;;;;;0.00;0.00;;;;;21.89;53.39;101612.09;5120460;27;45364;-63
2021/06/12 02:57:25;;;;;;;;;0.00;0.00;;;;;21.89;53.39;101606.72;5101443;27;45449;-64
2021/06/12 02:59:53;;;;;;;;;0.00;0.00;;;;;21.86;53.19;101607.09;5117536;27;45336;-63
2021/06/12 03:02:19;;;;;;;;;0.00;0.00;;;;;21.81;53.35;101601.41;5102907;27;46306;-63
2021/06/12 03:04:46;;;;;;;;;0.00;0.00;;;;;21.76;53.11;101595.75;5121889;27;45249;-63
2021/06/12 03:07:13;;;;;;;;;0.00;0.00;;;;;21.70;53.36;101610.63;5122147;27;45245;-63
2021/06/12 03:09:39;;;;;;;;;0.00;0.00;;;;;21.66;53.32;101603.13;5103298;27;45471;-63
2021/06/12 03:12:06;;;;;;;;;0.00;0.00;;;;;21.63;53.26;101612.31;5111539;27;46783;-63
2021/06/12 03:14:33;;;;;;;;;0.00;0.00;;;;;21.58;53.18;101613.88;5116664;27;45230;-62
2021/06/12 03:16:59;;;;;;;;;0.00;0.00;;;;;21.54;53.53;101615.19;5101216;27;45284;-63
2021/06/12 03:19:25;;;;;;;;;0.00;0.00;;;;;21.51;53.58;101616.34;5118616;27;45626;-63
2021/06/12 03:21:52;;;;;;;;;0.00;0.00;;;;;21.49;53.59;101613.03;5122147;27;46597;-62
2021/06/12 03:24:19;;;;;;;;;0.00;0.00;;;;;21.44;53.58;101608.19;5124797;27;45254;-63
2021/06/12 03:26:45;;;;;;;;;0.00;0.00;;;;;21.42;53.85;101607.50;5125453;27;45482;-63
2021/06/12 03:29:13;;;;;;;;;0.00;0.00;;;;;21.38;53.91;101608.00;5125379;27;45470;-63
2021/06/12 03:31:38;;;;;;;;;0.00;0.00;;;;;21.34;54.18;101612.00;5124884;27;45193;-63
2021/06/12 03:34:04;;;;;;;;;0.00;0.00;;;;;21.28;54.21;101618.88;5125132;27;45252;-63
2021/06/12 03:36:30;;;;;;;;;0.00;0.00;;;;;21.24;54.64;101625.56;5125342;27;45476;-63
2021/06/12 03:38:56;;;;;;;;;0.00;0.00;;;;;21.22;54.72;101619.53;5124847;27;45247;-64
2021/06/12 03:41:22;;;;;;;;;0.00;0.00;;;;;21.20;54.32;101619.69;5124720;27;45525;-64
2021/06/12 03:43:50;;;;;;;;;0.00;0.00;;;;;21.17;54.61;101622.72;5121089;27;45268;-64
2021/06/12 03:46:17;;;;;;;;;0.00;0.00;;;;;21.14;54.35;101620.38;5104519;27;45403;-64
2021/06/12 03:48:48;;;;;;;;;0.00;0.00;;;;;21.08;54.72;101618.38;5086004;27;45565;-63
2021/06/12 03:51:15;;;;;;;;;0.00;0.00;;;;;21.03;54.80;101623.38;5085815;27;48145;-64
2021/06/12 03:53:44;;;;;;;;;0.00;0.00;;;;;20.97;55.05;101613.34;5122420;27;45475;-63
2021/06/12 03:56:12;;;;;;;;;0.00;0.00;;;;;20.97;54.94;101632.91;5124836;27;45219;-64
2021/06/12 03:58:40;;;;;;;;;0.00;0.00;;;;;20.96;55.51;101630.38;5124841;27;45540;-63
2021/06/12 04:01:05;;;;;;;;;0.00;0.00;;;;;20.90;55.16;101638.03;5124582;27;46380;-63
2021/06/12 04:03:31;;;;;;;;;0.00;0.00;;;;;20.85;55.37;101628.88;5124394;27;45258;-63
2021/06/12 04:05:56;;;;;;;;;0.00;0.00;;;;;20.88;55.52;101636.53;5124819;27;45353;-63
2021/06/12 04:08:21;;;;;;;;;0.00;0.00;;;;;20.90;55.46;101645.22;5124443;27;45354;-63
2021/06/12 04:10:47;;;;;;;;;0.00;0.00;;;;;20.90;55.49;101638.03;5124230;27;45352;-63
2021/06/12 04:13:12;;;;;;;;;0.00;0.00;;;;;20.91;55.64;101638.91;5110457;27;45332;-64
2021/06/12 04:15:37;;;;;;;;;0.00;0.00;;;;;20.92;55.34;101640.56;5124964;27;45295;-63
2021/06/12 04:18:09;;;;;;;;;0.00;0.00;;;;;20.94;55.85;101637.72;5124600;27;45301;-63
2021/06/12 04:20:39;;;;;;;;;0.00;0.00;;;;;20.96;55.46;101641.06;5124325;27;46188;-63
2021/06/12 04:23:05;;;;;;;;;0.00;0.00;;;;;20.96;56.07;101646.41;5123995;27;45172;-63
2021/06/12 04:25:31;;;;;;;;;0.00;0.00;;;;;20.93;55.87;101639.56;5124538;27;45354;-63
2021/06/12 04:27:56;;;;;;;;;0.00;0.00;;;;;20.93;55.52;101644.06;5124584;27;45396;-62
2021/06/12 04:30:22;;;;;;;;;0.00;0.00;;;;;20.94;55.62;101643.91;5123904;27;45247;-63
2021/06/12 04:32:47;;;;;;;;;0.00;0.00;;;;;20.96;55.86;101636.56;5116893;27;45371;-63
2021/06/12 04:35:14;;;;;;;;;0.00;0.00;;;;;20.98;55.36;101645.25;5098989;27;45298;-63
2021/06/12 04:37:40;;;;;;;;;0.00;0.00;;;;;21.03;55.28;101640.22;5124100;27;45692;-64
2021/06/12 04:40:06;;;;;;;;;0.00;0.00;;;;;21.01;55.77;101649.41;5123871;27;46540;-63
2021/06/12 04:42:32;;;;;;;;;0.00;0.00;;;;;21.01;55.84;101647.56;5123874;27;45416;-63
2021/06/12 04:44:57;;;;;;;;;0.00;0.00;;;;;21.00;55.64;101648.59;5124366;27;45455;-63
2021/06/12 04:47:22;;;;;;;;;0.00;0.00;;;;;21.01;55.48;101649.41;5124156;27;45475;-63
2021/06/12 04:49:48;;;;;;;;;0.00;0.00;;;;;21.04;55.65;101641.91;5124117;27;46590;-63
2021/06/12 04:52:13;;;;;;;;;0.00;0.00;;;;;21.08;55.73;101645.09;5123663;27;45257;-63
2021/06/12 04:54:38;;;;;;;;;0.00;0.00;;;;;21.13;55.12;101641.91;5123399;27;45425;-63
2021/06/12 04:57:04;;;;;;;;;0.00;0.00;;;;;21.14;55.41;101651.59;5117640;27;45346;-62
2021/06/12 04:59:30;;;;;;;;;0.00;0.00;;;;;21.17;55.43;101654.78;5115928;27;45389;-63
2021/06/12 05:01:55;;;;;;;;;0.00;0.00;;;;;21.22;55.04;101652.44;5123519;27;45232;-63
2021/06/12 05:04:21;;;;;;;;;0.00;0.00;;;;;21.24;55.33;101658.44;5123639;27;45311;-63
2021/06/12 05:06:46;;;;;;;;;0.00;0.00;;;;;21.25;55.00;101657.47;5123768;27;45459;-63
2021/06/12 05:09:11;;;;;;;;;0.00;0.00;;;;;21.23;54.88;101653.25;5123333;27;46657;-63
2021/06/12 05:11:37;;;;;;;;;0.00;0.00;;;;;21.19;55.54;101651.94;5117370;27;45234;-63
2021/06/12 05:14:02;;;;;;;;;0.00;0.00;;;;;21.16;55.20;101661.09;5114262;27;45381;-63
2021/06/12 05:16:27;;;;;;;;;0.00;0.00;;;;;21.13;55.61;101648.09;5103809;27;45456;-62
2021/06/12 05:18:53;;;;;;;;;0.00;0.00;;;;;21.14;55.12;101652.41;5115158;27;46268;-62
2021/06/12 05:21:18;;;;;;;;;0.00;0.00;;;;;21.16;55.29;101655.75;5123182;27;45430;-62
2021/06/12 05:23:43;;;;;;;;;0.00;0.00;;;;;21.18;55.13;101656.44;5122907;27;45335;-62
2021/06/12 05:26:11;;;;;;;;;0.00;0.00;;;;;21.14;55.14;101649.75;5123314;27;45471;-62
2021/06/12 05:28:37;;;;;;;;;0.00;0.00;;;;;21.15;55.62;101651.44;5122886;27;46649;-63
2021/06/12 05:31:02;;;;;;;;;0.00;0.00;;;;;21.14;56.01;101648.91;5122716;27;45427;-62
2021/06/12 05:33:29;;;;;;;;;0.00;0.00;;;;;21.15;55.51;101640.75;5110921;27;45353;-62
2021/06/12 05:35:58;;;;;;;;;0.00;0.00;;;;;21.15;56.17;101637.25;5122022;27;45474;-63
2021/06/12 05:38:25;;;;;;;;;0.00;0.00;;;;;21.12;55.66;101641.06;5122637;27;46459;-63
2021/06/12 05:40:51;;;;;;;;;0.00;0.00;;;;;21.14;55.74;101646.25;5122651;27;45301;-63
2021/06/12 05:43:16;;;;;;;;;0.00;0.00;;;;;21.18;55.60;101651.09;5122765;27;45293;-63
2021/06/12 05:45:43;;;;;;;;;0.00;0.00;;;;;21.23;55.44;101648.78;5121821;27;45748;-63
2021/06/12 05:48:09;;;;;;;;;0.00;0.00;;;;;21.28;55.21;101656.28;5122615;27;45307;-63
2021/06/12 05:50:34;;;;;;;;;0.00;0.00;;;;;21.35;55.23;101659.13;5122632;27;45268;-63
2021/06/12 05:52:59;;;;;;;;;0.00;0.00;;;;;21.42;55.31;101652.94;5122298;27;45353;-63
2021/06/12 05:55:25;;;;;;;;;0.00;0.00;;;;;21.52;54.92;101654.63;5122267;27;45500;-64
2021/06/12 05:57:50;;;;;;;;;0.00;0.00;;;;;21.60;54.79;101658.13;5109999;27;45413;-63
2021/06/12 06:00:16;;;;;;;;;0.00;0.00;;;;;21.70;54.70;101660.59;5120948;27;45265;-62
2021/06/12 06:02:41;;;;;;;;;0.00;0.00;;;;;21.84;54.24;101667.09;5122983;27;45364;-62
2021/06/12 06:05:07;;;;;;;;;0.00;0.00;;;;;21.97;54.05;101661.22;5122415;27;45234;-62
2021/06/12 06:07:32;;;;;;;;;0.00;0.00;;;;;22.07;53.71;101654.69;5122151;27;46577;-64
2021/06/12 06:09:58;;;;;;;;;0.00;0.00;;;;;22.25;53.20;101656.31;5122288;27;45237;-63
2021/06/12 06:12:24;;;;;;;;;0.00;0.00;;;;;22.55;53.33;101662.69;5110364;27;45340;-63
2021/06/12 06:14:49;;;;;;;;;0.00;0.00;;;;;22.98;53.54;101657.72;5121144;27;45318;-63
2021/06/12 06:17:14;;;;;;;;;0.00;0.00;;;;;23.51;52.72;101661.31;5122135;27;46440;-64
2021/06/12 06:19:40;;;;;;;;;0.00;0.00;;;;;23.99;52.01;101665.56;5122262;27;45329;-64
2021/06/12 06:22:05;;;;;;;;;0.00;0.00;;;;;24.38;51.12;101662.56;5122662;27;45255;-63
2021/06/12 06:24:31;;;;;;;;;0.00;0.00;;;;;24.81;49.94;101665.34;5103580;27;45563;-63
2021/06/12 06:26:56;;;;;;;;;0.00;0.00;;;;;25.23;49.63;101662.91;5122436;27;46124;-63
2021/06/12 06:29:21;;;;;;;;;0.00;0.00;;;;;25.56;47.43;101669.34;5121575;27;45451;-64
2021/06/12 06:31:47;;;;;;;;;0.00;0.00;;;;;25.87;47.74;101670.78;5122337;27;45299;-64
2021/06/12 06:34:12;;;;;;;;;0.00;0.00;;;;;26.15;47.06;101678.84;5103479;27;45304;-63
2021/06/12 06:36:38;;;;;;;;;0.00;0.00;;;;;26.40;45.92;101671.09;5082536;27;47091;-62
2021/06/12 06:39:04;;;;;;;;;0.00;0.00;;;;;26.50;45.48;101683.34;5119237;27;45306;-63
2021/06/12 06:41:29;;;;;;;;;0.00;0.00;;;;;26.55;44.97;101676.31;5121909;27;45354;-63
2021/06/12 06:43:54;;;;;;;;;0.00;0.00;;;;;26.56;44.79;101679.88;5121330;27;45574;-63
2021/06/12 06:46:20;;;;;;;;;0.00;0.00;;;;;26.67;44.74;101684.66;5121545;27;45339;-63
2021/06/12 06:48:45;;;;;;;;;0.00;0.00;;;;;26.75;44.66;101695.28;5117181;27;47057;-63
2021/06/12 06:51:11;;;;;;;;;0.00;0.00;;;;;26.87;44.20;101690.13;5112588;27;45394;-62
2021/06/12 06:53:36;;;;;;;;;0.00;0.00;;;;;26.97;43.79;101685.16;5121924;27;45401;-63
2021/06/12 06:56:04;;;;;;;;;0.00;0.00;;;;;27.06;43.67;101688.47;5122174;27;46431;-63
2021/06/12 06:58:29;;;;;;;;;0.00;0.00;;;;;27.22;43.14;101683.78;5125058;27;45336;-63
2021/06/12 07:00:55;;;;;;;;;0.00;0.00;;;;;27.39;42.51;101693.94;5106478;27;45451;-64
2021/06/12 07:03:20;;;;;;;;;0.00;0.00;;;;;27.58;42.02;101696.81;5124611;27;45281;-63
2021/06/12 07:05:46;;;;;;;;;0.00;0.00;;;;;27.80;41.78;101689.34;5124605;27;45321;-63
2021/06/12 07:08:11;;;;;;;;;0.00;0.00;;;;;28.02;41.36;101698.03;5106119;27;45402;-63
2021/06/12 07:10:36;;;;;;;;;0.00;0.00;;;;;28.21;40.81;101699.84;5124982;27;45434;-64
2021/06/12 07:13:02;;;;;;;;;0.00;0.00;;;;;28.53;40.07;101689.16;5110602;27;45333;-64
2021/06/12 07:15:28;;;;;;;;;0.00;0.00;;;;;28.86;39.91;101696.25;5124597;27;45463;-65
2021/06/12 07:17:53;;;;;;;;;0.00;0.00;;;;;29.06;39.53;101703.41;5124915;27;45269;-64
2021/06/12 07:20:19;;;;;;;;;0.00;0.00;;;;;29.31;39.19;101704.28;5125008;27;45164;-64
2021/06/12 07:22:45;;;;;;;;;0.00;0.00;;;;;29.55;38.17;101712.63;5124550;27;45340;-63
2021/06/12 07:25:10;;;;;;;;;0.00;0.00;;;;;29.82;37.46;101713.19;5123932;27;46729;-64
2021/06/12 07:27:36;;;;;;;;;0.00;0.00;;;;;29.90;37.03;101721.03;5124399;27;45277;-64
2021/06/12 07:30:02;;;;;;;;;0.00;0.00;;;;;29.94;37.53;101722.25;5124014;27;45132;-63
2021/06/12 07:32:28;;;;;;;;;0.00;0.00;;;;;29.99;37.09;101730.53;5107112;27;45233;-63
2021/06/12 07:34:53;;;;;;;;;0.00;0.00;;;;;30.03;37.12;101734.44;5103782;27;46945;-63
2021/06/12 07:37:19;;;;;;;;;0.00;0.00;;;;;30.04;36.30;101737.97;5101822;27;45463;-63
2021/06/12 07:39:44;;;;;;;;;0.00;0.00;;;;;30.05;36.65;101745.88;5124357;27;45313;-63
2021/06/12 07:42:09;;;;;;;;;0.00;0.00;;;;;30.09;36.23;101753.53;5124210;27;45379;-63
2021/06/12 07:44:35;;;;;;;;;0.00;0.00;;;;;30.16;36.29;101749.72;5105453;27;46113;-63
2021/06/12 07:47:00;;;;;;;;;0.00;0.00;;;;;30.24;35.92;101749.44;5123827;27;45364;-63
2021/06/12 07:49:25;;;;;;;;;0.00;0.00;;;;;30.36;36.00;101756.81;5124466;27;45338;-63
2021/06/12 07:51:51;;;;;;;;;0.00;0.00;;;;;30.53;35.58;101766.00;5124383;27;45312;-64
2021/06/12 07:54:16;;;;;;;;;0.00;0.00;;;;;30.68;35.35;101760.19;5104960;27;46215;-64
2021/06/12 07:56:42;;;;;;;;;0.00;0.00;;;;;30.89;34.64;101761.59;5120990;27;45343;-63
2021/06/12 07:59:07;;;;;;;;;0.00;0.00;;;;;31.06;34.62;101761.78;5103234;27;45596;-63
2021/06/12 08:01:33;;;;;;;;;0.00;0.00;;;;;31.36;33.96;101763.59;5119737;27;45263;-63
2021/06/12 08:03:58;;;;;;;;;0.00;0.00;;;;;31.57;33.99;101760.38;5123569;27;45980;-62
2021/06/12 08:06:24;;;;;;;;;0.00;0.00;;;;;31.84;33.36;101758.03;5123262;27;50348;-63
2021/06/12 08:08:49;;;;;;;;;0.00;0.00;;;;;32.01;32.38;101763.59;5122835;27;45225;-63
2021/06/12 08:11:14;;;;;;;;;0.00;0.00;;;;;32.07;33.19;101765.38;5121805;27;45219;-64
2021/06/12 08:13:40;;;;;;;;;0.00;0.00;;;;;32.04;33.00;101762.28;5111852;27;45435;-63
2021/06/12 08:16:06;;;;;;;;;0.00;0.00;;;;;32.15;32.48;101764.16;5123467;27;45229;-64
2021/06/12 08:18:32;;;;;;;;;0.00;0.00;;;;;32.12;32.58;101770.09;5123213;27;45288;-64
2021/06/12 08:20:58;;;;;;;;;0.00;0.00;;;;;32.04;32.48;101773.97;5107355;27;45419;-62
2021/06/12 08:23:24;;;;;;;;;0.00;0.00;;;;;31.99;32.58;101775.78;5111803;27;46611;-63
2021/06/12 08:25:49;;;;;;;;;0.00;0.00;;;;;32.19;32.50;101778.13;5123270;27;45266;-63
2021/06/12 08:28:14;;;;;;;;;0.00;0.00;;;;;32.57;32.11;101772.16;5104488;27;45385;-63
2021/06/12 08:30:40;;;;;;;;;0.00;0.00;;;;;32.80;31.22;101765.78;5123492;27;45261;-64
2021/06/12 08:33:07;;;;;;;;;0.00;0.00;;;;;33.16;31.07;101774.63;5122929;27;46166;-64
2021/06/12 08:35:33;;;;;;;;;0.00;0.00;;;;;33.51;31.24;101768.13;5123016;27;45289;-63
2021/06/12 08:37:59;;;;;;;;;0.00;0.00;;;;;33.97;30.58;101779.72;5114657;27;45237;-63
2021/06/12 08:40:25;;;;;;;;;0.00;0.00;;;;;34.56;29.67;101779.16;5118667;27;45208;-63
2021/06/12 08:42:51;;;;;;;;;0.00;0.00;;;;;35.36;28.83;101775.91;5104435;27;47539;-63
2021/06/12 08:45:18;;;;;;;;;0.00;0.00;;;;;35.67;28.34;101779.72;5122892;27;45174;-64
2021/06/12 08:47:44;;;;;;;;;0.00;0.00;;;;;36.28;27.85;101782.00;5123446;27;45323;-64
2021/06/12 08:50:10;;;;;;;;;0.00;0.00;;;;;37.55;26.67;101791.56;5123385;27;45750;-63
2021/06/12 08:52:38;;;;;;;;;0.00;0.00;;;;;37.68;25.99;101792.97;5122212;27;46394;-64
2021/06/12 08:55:05;;;;;;;;;0.00;0.00;;;;;37.74;25.70;101789.91;5122164;27;45353;-64
2021/06/12 08:57:30;;;;;;;;;0.00;0.00;;;;;37.11;25.36;101795.69;5112231;27;45168;-64
2021/06/12 08:59:56;;;;;;;;;0.00;0.00;;;;;37.07;25.62;101804.69;5119545;27;45190;-65
2021/06/12 09:02:21;;;;;;;;;0.00;0.00;;;;;38.48;25.12;101794.91;5122499;27;45614;-63
2021/06/12 09:04:52;;;;;;;;;0.00;0.00;;;;;37.91;24.90;101792.34;5122289;27;45234;-63
2021/06/12 09:07:21;;;;;;;;;0.00;0.00;;;;;37.16;25.33;101783.91;5122626;27;45341;-62
2021/06/12 09:09:49;;;;;;;;;0.00;0.00;;;;;37.33;25.52;101797.34;5122771;27;45432;-64
2021/06/12 09:12:14;;;;;;;;;0.00;0.00;;;;;37.34;24.76;101796.22;5110982;27;46468;-63
2021/06/12 09:14:40;;;;;;;;;0.00;0.00;;;;;36.57;25.43;101800.69;5119316;27;45388;-63
2021/06/12 09:17:06;;;;;;;;;0.00;0.00;;;;;36.03;25.55;101796.34;5122715;27;45410;-63
2021/06/12 09:19:39;;;;;;;;;0.00;0.00;;;;;35.71;26.82;101795.31;5121401;27;45574;-64
2021/06/12 09:22:06;;;;;;;;;0.00;0.00;;;;;38.61;25.17;101790.75;5121761;27;45404;-63
2021/06/12 09:24:38;;;;;;;;;0.00;0.00;;;;;41.22;22.59;101798.19;5121358;27;45464;-63
2021/06/12 09:27:08;;;;;;;;;0.00;0.00;;;;;42.55;20.80;101796.47;5103310;27;45310;-63
2021/06/12 09:29:39;;;;;;;;;0.00;0.00;;;;;42.43;20.42;101787.88;5102971;27;45645;-63
2021/06/12 09:32:23;;;;;;;;;0.00;0.00;;;;;41.26;20.22;101797.28;5120891;27;45360;-62
2021/06/12 09:34:54;;;;;;;;;0.00;0.00;;;;;41.24;21.23;101796.75;5111823;27;45330;-64
2021/06/12 09:37:22;;;;;;;;;0.00;0.00;;;;;41.35;20.96;101786.38;5117483;27;45216;-65
2021/06/12 09:39:57;;;;;;;;;0.00;0.00;;;;;41.16;20.98;101800.19;5121426;27;45527;-65
2021/06/12 09:42:56;;;;;;;;;0.00;0.00;;;;;41.34;20.76;101802.09;5120990;27;45562;-65
2021/06/12 09:45:27;;;;;;;;;0.00;0.00;;;;;40.86;20.64;101795.97;5064730;27;45410;-64
2021/06/12 09:48:16;;;;;;;;;0.00;0.00;;;;;40.12;21.17;101799.94;5121828;27;45208;-63
2021/06/12 09:50:43;;;;;;;;;0.00;0.00;;;;;40.60;20.97;101793.56;5100439;27;45339;-64
2021/06/12 09:53:37;;;;;;;;;0.00;0.00;;;;;41.20;20.08;101798.47;5113541;27;45327;-65
2021/06/12 09:56:09;;;;;;;;;0.00;0.00;;;;;41.53;20.40;101792.94;5121346;27;45388;-63
2021/06/12 09:58:35;;;;;;;;;0.00;0.00;;;;;41.95;20.16;101793.81;5120920;27;45250;-64
2021/06/12 10:01:07;;;;;;;;;0.00;0.00;;;;;42.49;20.68;101794.94;5121067;27;45498;-64
2021/06/12 10:03:32;;;;;;;;;0.00;0.00;;;;;42.85;19.42;101791.34;5120845;27;46276;-64
2021/06/12 10:06:14;;;;;;;;;0.00;0.00;;;;;42.53;18.95;101787.66;5120676;27;46028;-64
2021/06/12 10:08:41;;;;;;;;;0.00;0.00;;;;;42.52;20.13;101791.53;5120810;27;45390;-64
2021/06/12 10:11:07;;;;;;;;;0.00;0.00;;;;;43.22;19.34;101797.63;5119488;27;45262;-64
2021/06/12 10:13:33;;;;;;;;;0.00;0.00;;;;;44.04;18.11;101803.75;5109320;27;45495;-64
2021/06/12 10:15:59;;;;;;;;;0.00;0.00;;;;;45.17;17.16;101789.19;5121142;27;45405;-64
2021/06/12 10:18:25;;;;;;;;;0.00;0.00;;;;;45.78;16.49;101805.66;5121134;27;45341;-64
2021/06/12 10:20:52;;;;;;;;;0.00;0.00;;;;;46.67;15.91;101802.81;5120913;27;45483;-64
2021/06/12 10:23:17;;;;;;;;;0.00;0.00;;;;;47.70;14.70;101807.66;5120356;27;46245;-64
2021/06/12 10:25:43;;;;;;;;;0.00;0.00;;;;;48.56;14.39;101813.13;5120384;27;45443;-63
2021/06/12 10:28:09;;;;;;;;;0.00;0.00;;;;;49.12;13.20;101812.34;5120270;27;45298;-64
2021/06/12 10:30:35;;;;;;;;;0.00;0.00;;;;;49.14;13.31;101804.41;5104467;27;45267;-64
2021/06/12 10:33:01;;;;;;;;;0.00;0.00;;;;;49.22;13.58;101817.38;5103877;27;45338;-63
2021/06/12 10:35:28;;;;;;;;;0.00;0.00;;;;;47.61;13.99;101801.41;5103845;27;45152;-64
2021/06/12 10:37:55;;;;;;;;;0.00;0.00;;;;;45.17;15.12;101809.41;5113401;27;45416;-64
2021/06/12 10:40:39;;;;;;;;;0.00;0.00;;;;;44.71;15.56;101810.06;5105820;27;45395;-63
2021/06/12 10:43:07;;;;;;;;;0.00;0.00;;;;;43.51;16.99;101810.19;5124222;27;45476;-64
2021/06/12 10:45:32;;;;;;;;;0.00;0.00;;;;;42.87;17.65;101804.84;5105265;27;45357;-65
2021/06/12 10:47:58;;;;;;;;;0.00;0.00;;;;;42.57;17.83;101807.16;5116446;27;45358;-65
2021/06/12 10:50:26;;;;;;;;;0.00;0.00;;;;;42.05;17.94;101809.38;5124423;27;45596;-64
2021/06/12 10:52:53;;;;;;;;;0.00;0.00;;;;;41.20;18.67;101807.56;5105430;27;45916;-64
2021/06/12 10:55:50;;;;;;;;;0.00;0.00;;;;;40.32;19.52;101812.66;5124072;27;45340;-64
2021/06/12 10:58:33;;;;;;;;;0.00;0.00;;;;;39.51;20.38;101815.13;5124350;27;45353;-64
2021/06/12 11:01:17;;;;;;;;;0.00;0.00;;;;;39.32;21.30;101815.00;5124356;27;45545;-64
2021/06/12 11:09:13;;;;;;;;;0.00;0.00;;;;;38.67;21.23;101812.41;5103216;27;45468;-65
2021/06/12 11:11:42;;;;;;;;;0.00;0.00;;;;;37.90;21.65;101814.56;5105325;27;45505;-64
2021/06/12 11:14:20;;;;;;;;;0.00;0.00;;;;;37.52;22.48;101817.63;5115908;27;45336;-64
2021/06/12 11:17:05;;;;;;;;;0.00;0.00;;;;;37.32;22.23;101826.66;5124148;27;45277;-64
2021/06/12 11:19:44;;;;;;;;;0.00;0.00;;;;;37.29;22.66;101818.16;5105269;27;45259;-65
2021/06/12 11:22:27;;;;;;;;;0.00;0.00;;;;;37.17;22.73;101812.13;5123472;27;45351;-64
2021/06/12 11:25:15;;;;;;;;;0.00;0.00;;;;;37.07;22.92;101811.00;5097372;27;47653;-64
2021/06/12 11:27:46;;;;;;;;;0.00;0.00;;;;;37.04;23.09;101807.97;5087063;27;45380;-64
2021/06/12 11:30:12;;;;;;;;;0.00;0.00;;;;;36.94;23.12;101806.84;5124065;27;45191;-63
2021/06/12 11:32:39;;;;;;;;;0.00;0.00;;;;;36.83;23.48;101802.47;5105313;27;45562;-64